createdAt,value
2022-11-12T00:02:10.504Z,1.30
2022-11-12T00:04:56.929Z,1.30
2022-11-12T00:07:43.675Z,1.70
2022-11-12T00:10:32.295Z,1.70
2022-11-12T00:13:19.028Z,1.60
2022-11-12T00:16:06.427Z,1.90
2022-11-12T00:18:53.051Z,1.83
2022-11-12T00:21:39.803Z,1.50
2022-11-12T00:24:26.341Z,1.73
2022-11-12T00:27:14.279Z,2.20
2022-11-12T00:30:01.281Z,2.00
2022-11-12T00:32:48.002Z,1.90
2022-11-12T00:35:35.156Z,1.40
2022-11-12T00:38:21.574Z,1.60
2022-11-12T00:41:08.269Z,1.93
2022-11-12T00:43:56.447Z,1.50
2022-11-12T00:46:43.308Z,1.80
2022-11-12T00:50:04.841Z,1.87
2022-11-12T00:52:52.988Z,1.70
2022-11-12T00:55:39.444Z,1.73
2022-11-12T00:58:26.014Z,1.50
2022-11-12T01:01:16.389Z,1.47
2022-11-12T01:04:03.330Z,1.63
2022-11-12T01:06:50.044Z,1.43
2022-11-12T01:09:36.943Z,1.80
2022-11-12T01:12:23.260Z,1.70
2022-11-12T01:15:10.688Z,1.70
2022-11-12T01:17:58.774Z,2.00
2022-11-12T01:20:45.273Z,1.50
2022-11-12T01:23:33.703Z,1.90
2022-11-12T01:26:21.902Z,2.13
2022-11-12T01:29:09.069Z,1.60
2022-11-12T01:31:55.540Z,2.53
2022-11-12T01:34:43.299Z,1.10
2022-11-12T01:37:29.901Z,1.60
2022-11-12T01:40:17.205Z,1.80
2022-11-12T01:43:03.706Z,1.60
2022-11-12T01:45:51.301Z,1.30
2022-11-12T01:48:40.260Z,1.80
2022-11-12T01:51:34.088Z,1.83
2022-11-12T01:54:21.581Z,1.73
2022-11-12T01:57:09.273Z,1.60
2022-11-12T01:59:59.209Z,1.93
2022-11-12T02:02:48.493Z,1.63
2022-11-12T02:05:35.801Z,1.80
2022-11-12T02:08:24.259Z,1.43
2022-11-12T02:11:14.884Z,1.10
2022-11-12T02:14:05.199Z,1.37
2022-11-12T02:16:51.973Z,1.60
2022-11-12T02:19:39.048Z,1.97
2022-11-12T02:22:27.032Z,1.90
2022-11-12T02:25:15.966Z,1.43
2022-11-12T02:28:04.416Z,1.60
2022-11-12T02:30:51.314Z,1.63
2022-11-12T02:33:37.656Z,1.57
2022-11-12T02:36:24.423Z,1.97
2022-11-12T02:39:12.692Z,1.60
2022-11-12T02:41:59.319Z,1.90
2022-11-12T02:44:46.356Z,1.70
2022-11-12T02:47:33.025Z,1.73
2022-11-12T02:50:20.214Z,1.70
2022-11-12T02:53:06.886Z,1.53
2022-11-12T02:55:54.819Z,1.83
2022-11-12T02:58:41.642Z,1.77
2022-11-12T03:01:28.106Z,1.60
2022-11-12T03:04:14.878Z,1.50
2022-11-12T03:07:01.739Z,1.57
2022-11-12T03:09:48.535Z,1.93
2022-11-12T03:12:36.603Z,1.53
2022-11-12T03:15:23.364Z,1.60
2022-11-12T03:18:10.165Z,1.90
2022-11-12T03:20:56.993Z,1.67
2022-11-12T03:23:43.812Z,1.93
2022-11-12T03:26:35.418Z,1.63
2022-11-12T03:29:23.789Z,1.77
2022-11-12T03:32:10.401Z,1.70
2022-11-12T03:34:56.951Z,1.63
2022-11-12T03:37:43.457Z,1.40
2022-11-12T03:40:30.127Z,1.70
2022-11-12T03:43:16.800Z,1.53
2022-11-12T03:46:04.865Z,1.60
2022-11-12T03:48:51.233Z,2.03
2022-11-12T03:51:37.966Z,1.33
2022-11-12T03:54:24.807Z,1.50
2022-11-12T03:57:11.403Z,1.80
2022-11-12T03:59:57.902Z,2.10
2022-11-12T04:02:46.234Z,1.33
2022-11-12T04:05:50.244Z,1.60
2022-11-12T04:08:39.703Z,1.47
2022-11-12T04:11:26.263Z,1.50
2022-11-12T04:14:13.191Z,1.40
2022-11-12T04:17:17.453Z,1.23
2022-11-12T04:20:23.644Z,1.27
2022-11-12T04:23:10.025Z,1.70
2022-11-12T04:26:14.283Z,1.50
2022-11-12T04:29:43.028Z,1.33
2022-11-12T04:32:30.023Z,1.40
2022-11-12T04:35:19.316Z,1.30
2022-11-12T04:38:05.728Z,1.33
2022-11-12T04:41:10.296Z,1.43
2022-11-12T04:44:14.809Z,1.50
2022-11-12T04:47:01.392Z,1.60
2022-11-12T04:49:48.004Z,1.53
2022-11-12T04:52:36.097Z,1.70
2022-11-12T04:55:22.551Z,1.67
2022-11-12T04:58:09.236Z,1.67
2022-11-12T05:00:55.881Z,1.83
2022-11-12T05:03:42.780Z,1.60
2022-11-12T05:06:47.428Z,1.57
2022-11-12T05:09:35.711Z,1.60
2022-11-12T05:12:22.417Z,1.37
2022-11-12T05:15:10.518Z,1.30
2022-11-12T05:17:56.841Z,1.63
2022-11-12T05:20:43.280Z,1.47
2022-11-12T05:23:30.196Z,1.43
2022-11-12T05:26:18.009Z,1.20
2022-11-12T05:29:08.540Z,1.50
2022-11-12T05:31:55.496Z,1.37
2022-11-12T05:34:42.388Z,1.60
2022-11-12T05:37:29.097Z,1.00
2022-11-12T05:40:15.496Z,1.50
2022-11-12T05:43:03.573Z,1.20
2022-11-12T05:45:50.140Z,1.40
2022-11-12T05:48:36.832Z,1.20
2022-11-12T05:51:23.261Z,1.13
2022-11-12T05:54:09.960Z,1.20
2022-11-12T05:56:56.332Z,1.30
2022-11-12T05:59:44.502Z,1.33
2022-11-12T06:02:31.159Z,1.20
2022-11-12T06:05:17.752Z,1.40
2022-11-12T06:08:05.414Z,1.40
2022-11-12T06:10:52.233Z,1.50
2022-11-12T06:13:38.599Z,1.27
2022-11-12T06:16:26.606Z,1.30
2022-11-12T06:19:13.160Z,1.10
2022-11-12T06:21:59.782Z,1.40
2022-11-12T06:24:46.697Z,1.20
2022-11-12T06:27:33.274Z,1.23
2022-11-12T06:30:25.390Z,0.97
2022-11-12T06:33:13.875Z,1.10
2022-11-12T06:36:06.690Z,1.30
2022-11-12T06:38:53.283Z,1.43
2022-11-12T06:41:39.930Z,1.27
2022-11-12T06:44:26.687Z,1.40
2022-11-12T06:47:13.060Z,1.20
2022-11-12T06:50:02.386Z,1.13
2022-11-12T06:52:48.983Z,1.10
2022-11-12T06:55:35.641Z,1.13
2022-11-12T06:58:22.265Z,1.20
2022-11-12T07:01:14.421Z,0.97
2022-11-12T07:04:01.169Z,1.00
2022-11-12T07:06:49.162Z,0.97
2022-11-12T07:09:35.622Z,1.30
2022-11-12T07:12:22.012Z,1.10
2022-11-12T07:15:09.156Z,1.63
2022-11-12T07:17:55.520Z,1.60
2022-11-12T07:20:41.970Z,1.40
2022-11-12T07:23:31.104Z,1.30
2022-11-12T07:26:20.511Z,1.30
2022-11-12T07:29:07.583Z,1.30
2022-11-12T07:31:54.063Z,1.30
2022-11-12T07:34:40.814Z,1.47
2022-11-12T07:37:27.346Z,1.50
2022-11-12T07:40:16.192Z,1.50
2022-11-12T07:43:02.779Z,1.30
2022-11-12T07:45:49.186Z,1.33
2022-11-12T07:48:35.932Z,1.83
2022-11-12T07:51:24.389Z,1.70
2022-11-12T07:54:10.825Z,1.47
2022-11-12T07:56:58.783Z,1.30
2022-11-12T07:59:46.502Z,1.30
2022-11-12T08:02:33.240Z,1.50
2022-11-12T08:05:21.515Z,1.83
2022-11-12T08:08:08.356Z,1.80
2022-11-12T08:10:56.762Z,1.70
2022-11-12T08:14:09.276Z,1.90
2022-11-12T08:16:56.033Z,1.10
2022-11-12T08:19:42.426Z,1.50
2022-11-12T08:22:28.799Z,1.40
2022-11-12T08:25:15.752Z,1.30
2022-11-12T08:28:02.283Z,1.57
2022-11-12T08:30:50.111Z,1.83
2022-11-12T08:33:36.965Z,1.40
2022-11-12T08:36:23.294Z,1.37
2022-11-12T08:39:09.860Z,1.40
2022-11-12T08:41:56.434Z,1.83
2022-11-12T08:44:42.943Z,1.40
2022-11-12T08:47:30.848Z,1.30
2022-11-12T08:50:17.456Z,1.33
2022-11-12T08:53:06.690Z,1.97
2022-11-12T08:55:54.529Z,1.70
2022-11-12T08:58:40.940Z,1.70
2022-11-12T09:01:27.662Z,1.60
2022-11-12T09:04:15.770Z,1.60
2022-11-12T09:07:02.748Z,1.30
2022-11-12T09:09:49.121Z,1.57
2022-11-12T09:12:35.800Z,1.50
2022-11-12T09:15:36.162Z,1.40
2022-11-12T09:18:23.536Z,1.63
2022-11-12T09:21:13.457Z,1.60
2022-11-12T09:23:59.864Z,1.47
2022-11-12T09:26:46.339Z,1.40
2022-11-12T09:29:33.102Z,1.77
2022-11-12T09:32:19.769Z,1.70
2022-11-12T09:35:06.933Z,1.67
2022-11-12T09:37:54.791Z,1.60
2022-11-12T09:40:48.791Z,2.30
2022-11-12T09:43:37.995Z,2.13
2022-11-12T09:46:35.248Z,1.80
2022-11-12T09:49:24.637Z,1.67
2022-11-12T09:52:15.649Z,1.67
2022-11-12T09:55:09.591Z,1.57
2022-11-12T09:57:56.251Z,2.23
2022-11-12T10:00:45.328Z,2.27
2022-11-12T10:03:40.097Z,1.87
2022-11-12T10:06:32.215Z,2.10
2022-11-12T10:09:21.745Z,1.90
2022-11-12T10:12:34.324Z,1.80
2022-11-12T10:15:55.547Z,2.13
2022-11-12T10:18:54.047Z,2.00
2022-11-12T10:21:47.515Z,2.13
2022-11-12T10:24:37.097Z,2.20
2022-11-12T10:27:28.592Z,2.03
2022-11-12T10:30:17.488Z,1.97
2022-11-12T10:33:04.476Z,2.17
2022-11-12T10:35:52.733Z,2.20
2022-11-12T10:38:39.902Z,2.13
2022-11-12T10:41:28.796Z,2.10
2022-11-12T10:44:17.059Z,1.70
2022-11-12T10:47:27.739Z,2.23
2022-11-12T10:50:21.837Z,2.00
2022-11-12T10:53:11.994Z,2.13
2022-11-12T10:56:00.595Z,2.30
2022-11-12T10:58:47.020Z,2.40
2022-11-12T11:01:36.044Z,2.27
2022-11-12T11:04:31.950Z,2.40
2022-11-12T11:07:22.695Z,2.20
2022-11-12T11:10:24.557Z,1.93
2022-11-12T11:13:20.443Z,2.07
2022-11-12T11:16:09.462Z,2.17
2022-11-12T11:18:59.424Z,1.80
2022-11-12T11:21:58.071Z,1.93
2022-11-12T11:24:54.491Z,1.97
2022-11-12T11:27:43.423Z,2.37
2022-11-12T11:30:29.916Z,1.60
2022-11-12T11:33:25.395Z,2.70
2022-11-12T11:36:23.084Z,1.90
2022-11-12T11:39:18.334Z,2.37
2022-11-12T11:42:15.481Z,2.00
2022-11-12T11:45:07.371Z,2.00
2022-11-12T11:48:02.987Z,2.33
2022-11-12T11:50:58.770Z,2.00
2022-11-12T11:53:52.341Z,1.73
2022-11-12T11:56:43.013Z,1.90
2022-11-12T11:59:38.668Z,1.93
2022-11-12T12:02:50.665Z,2.53
2022-11-12T12:06:10.925Z,1.90
2022-11-12T12:09:21.609Z,1.90
2022-11-12T12:12:17.248Z,1.97
2022-11-12T12:15:17.560Z,2.17
2022-11-12T12:18:09.826Z,2.00
2022-11-12T12:21:02.555Z,2.10
2022-11-12T12:23:52.104Z,2.10
2022-11-12T12:26:43.426Z,1.67
2022-11-12T12:29:34.401Z,1.67
2022-11-12T12:32:24.729Z,2.10
2022-11-12T12:35:17.766Z,1.67
2022-11-12T12:38:11.533Z,2.10
2022-11-12T12:41:03.674Z,2.00
2022-11-12T12:45:04.518Z,1.80
2022-11-12T12:47:51.469Z,2.00
2022-11-12T12:50:39.253Z,2.37
2022-11-12T12:53:43.219Z,2.23
2022-11-12T12:56:48.394Z,1.93
2022-11-12T12:59:35.004Z,2.47
2022-11-12T13:02:25.090Z,2.03
2022-11-12T13:05:31.634Z,1.73
2022-11-12T13:08:21.197Z,2.10
2022-11-12T13:11:08.091Z,2.27
2022-11-12T13:13:54.738Z,2.43
2022-11-12T13:17:00.576Z,2.70
2022-11-12T13:20:20.064Z,2.93
2022-11-12T13:23:10.657Z,2.60
2022-11-12T13:26:45.087Z,2.50
2022-11-12T13:29:43.524Z,2.27
2022-11-12T13:32:42.904Z,2.60
2022-11-12T13:35:34.752Z,1.97
2022-11-12T13:38:21.141Z,2.20
2022-11-12T13:41:12.430Z,1.70
2022-11-12T13:43:58.997Z,1.90
2022-11-12T13:46:46.770Z,1.90
2022-11-12T13:49:33.505Z,2.20
2022-11-12T13:52:21.327Z,2.47
2022-11-12T13:55:14.041Z,2.03
2022-11-12T13:58:00.620Z,2.00
2022-11-12T14:00:53.041Z,2.07
2022-11-12T14:03:44.191Z,2.27
2022-11-12T14:06:37.548Z,2.07
2022-11-12T14:09:36.283Z,2.17
2022-11-12T14:12:40.310Z,2.33
2022-11-12T14:15:35.756Z,2.10
2022-11-12T14:18:28.678Z,2.03
2022-11-12T14:21:17.843Z,1.90
2022-11-12T14:24:05.080Z,2.00
2022-11-12T14:26:53.519Z,2.00
2022-11-12T14:29:43.547Z,2.57
2022-11-12T14:33:00.781Z,1.83
2022-11-12T14:35:47.650Z,2.17
2022-11-12T14:38:37.057Z,2.00
2022-11-12T14:41:25.621Z,1.83
2022-11-12T14:44:18.508Z,2.00
2022-11-12T14:47:05.448Z,1.90
2022-11-12T14:49:52.205Z,2.20
2022-11-12T14:52:43.195Z,2.60
2022-11-12T14:55:32.349Z,2.20
2022-11-12T14:58:20.263Z,2.07
2022-11-12T15:02:03.825Z,6.47
2022-11-12T15:04:38.436Z,3.57
2022-11-12T15:07:26.611Z,3.20
2022-11-12T15:10:34.981Z,4.80
2022-11-12T15:13:23.842Z,3.00
2022-11-12T15:16:37.444Z,3.03
2022-11-12T15:19:25.596Z,2.90
2022-11-12T15:22:21.133Z,2.93
2022-11-12T15:25:12.877Z,2.70
2022-11-12T15:28:49.092Z,2.70
2022-11-12T15:31:44.843Z,2.77
2022-11-12T15:34:33.803Z,3.20
2022-11-12T15:37:23.942Z,2.70
2022-11-12T15:40:16.987Z,2.63
2022-11-12T15:43:03.624Z,2.60
2022-11-12T15:45:51.097Z,3.80
2022-11-12T15:48:39.284Z,2.40
2022-11-12T15:51:25.963Z,2.73
2022-11-12T15:54:12.646Z,3.13
2022-11-12T15:57:00.586Z,3.70
2022-11-12T15:59:49.858Z,2.97
2022-11-12T16:02:36.514Z,2.40
2022-11-12T16:05:24.790Z,2.90
2022-11-12T16:08:11.820Z,2.70
2022-11-12T16:10:58.606Z,3.97
2022-11-12T16:13:44.968Z,3.77
2022-11-12T16:16:32.701Z,4.27
2022-11-12T16:19:19.479Z,5.43
2022-11-12T16:22:12.559Z,2.93
2022-11-12T16:24:59.251Z,2.20
2022-11-12T16:27:47.379Z,2.83
2022-11-12T16:30:37.253Z,2.73
2022-11-12T16:33:23.702Z,2.50
2022-11-12T16:36:14.412Z,2.43
2022-11-12T16:39:02.451Z,1.87
2022-11-12T16:41:49.058Z,2.83
2022-11-12T16:44:35.939Z,2.30
2022-11-12T16:47:22.557Z,2.03
2022-11-12T16:50:10.795Z,1.83
2022-11-12T16:52:57.296Z,2.20
2022-11-12T16:55:45.493Z,3.17
2022-11-12T16:58:31.951Z,3.03
2022-11-12T17:01:25.024Z,3.87
2022-11-12T17:04:11.624Z,3.20
2022-11-12T17:06:58.347Z,3.50
2022-11-12T17:09:45.603Z,2.20
2022-11-12T17:12:33.508Z,2.30
2022-11-12T17:15:20.051Z,2.33
2022-11-12T17:18:07.566Z,2.23
2022-11-12T17:20:54.168Z,1.83
2022-11-12T17:23:40.910Z,2.63
2022-11-12T17:26:27.416Z,2.13
2022-11-12T17:29:15.234Z,2.17
2022-11-12T17:32:02.059Z,2.67
2022-11-12T17:34:48.622Z,2.00
2022-11-12T17:37:35.276Z,2.23
2022-11-12T17:40:22.020Z,2.30
2022-11-12T17:43:08.507Z,2.00
2022-11-12T17:45:57.389Z,2.70
2022-11-12T17:48:43.999Z,2.60
2022-11-12T17:51:30.786Z,2.20
2022-11-12T17:54:17.256Z,2.13
2022-11-12T17:57:03.797Z,2.47
2022-11-12T17:59:50.141Z,2.60
2022-11-12T18:02:37.864Z,2.73
2022-11-12T18:05:24.604Z,2.43
2022-11-12T18:08:11.372Z,2.17
2022-11-12T18:10:57.871Z,2.57
2022-11-12T18:13:44.452Z,2.73
2022-11-12T18:16:31.175Z,2.40
2022-11-12T18:19:18.771Z,2.60
2022-11-12T18:22:05.373Z,2.00
2022-11-12T18:24:52.808Z,2.10
2022-11-12T18:27:39.530Z,2.77
2022-11-12T18:30:26.117Z,2.50
2022-11-12T18:33:13.074Z,2.80
2022-11-12T18:36:06.171Z,2.33
2022-11-12T18:38:53.322Z,3.20
2022-11-12T18:41:39.990Z,3.13
2022-11-12T18:44:26.756Z,2.70
2022-11-12T18:47:13.418Z,2.30
2022-11-12T18:50:05.491Z,2.57
2022-11-12T18:52:55.983Z,2.90
2022-11-12T18:55:42.785Z,2.13
2022-11-12T18:58:34.951Z,2.53
2022-11-12T19:01:23.954Z,2.93
2022-11-12T19:04:11.324Z,2.20
2022-11-12T19:06:58.219Z,2.40
2022-11-12T19:09:45.924Z,2.20
2022-11-12T19:12:32.890Z,2.40
2022-11-12T19:15:24.062Z,2.57
2022-11-12T19:18:12.872Z,2.00
2022-11-12T19:21:03.804Z,1.90
2022-11-12T19:23:53.981Z,1.93
2022-11-12T19:26:43.044Z,2.20
2022-11-12T19:29:30.791Z,2.03
2022-11-12T19:32:17.396Z,2.00
2022-11-12T19:35:03.942Z,2.17
2022-11-12T19:37:50.715Z,1.80
2022-11-12T19:40:37.251Z,2.53
2022-11-12T19:43:24.929Z,2.10
2022-11-12T19:46:12.646Z,1.70
2022-11-12T19:48:59.668Z,2.20
2022-11-12T19:52:13.935Z,1.60
2022-11-12T19:55:00.999Z,2.10
2022-11-12T19:57:47.697Z,2.00
2022-11-12T20:00:35.828Z,1.70
2022-11-12T20:03:25.087Z,1.77
2022-11-12T20:06:13.962Z,1.70
2022-11-12T20:09:00.683Z,1.90
2022-11-12T20:11:47.262Z,1.80
2022-11-12T20:14:33.787Z,1.77
2022-11-12T20:17:21.666Z,2.17
2022-11-12T20:20:09.393Z,2.13
2022-11-12T20:22:55.820Z,2.47
2022-11-12T20:25:42.393Z,2.43
2022-11-12T20:28:53.677Z,2.07
2022-11-12T20:31:41.961Z,2.03
2022-11-12T20:34:29.705Z,1.50
2022-11-12T20:37:16.250Z,1.67
2022-11-12T20:40:03.508Z,1.83
2022-11-12T20:42:51.900Z,2.03
2022-11-12T20:45:38.302Z,2.00
2022-11-12T20:48:25.360Z,1.40
2022-11-12T20:51:23.754Z,1.50
2022-11-12T20:54:11.504Z,1.87
2022-11-12T20:56:59.741Z,1.80
2022-11-12T20:59:49.178Z,2.20
2022-11-12T21:02:37.891Z,1.90
2022-11-12T21:05:24.468Z,1.90
2022-11-12T21:08:12.625Z,2.03
2022-11-12T21:11:00.253Z,2.30
2022-11-12T21:13:46.787Z,1.53
2022-11-12T21:16:33.553Z,1.60
2022-11-12T21:19:20.429Z,1.93
2022-11-12T21:22:07.028Z,2.03
2022-11-12T21:24:54.869Z,1.50
2022-11-12T21:27:41.306Z,1.67
2022-11-12T21:30:27.707Z,1.73
2022-11-12T21:33:14.095Z,2.07
2022-11-12T21:36:00.609Z,1.90
2022-11-12T21:38:47.422Z,1.53
2022-11-12T21:41:35.352Z,1.70
2022-11-12T21:44:21.932Z,1.70
2022-11-12T21:47:08.333Z,2.20
2022-11-12T21:49:54.957Z,1.60
2022-11-12T21:52:41.833Z,2.07
2022-11-12T21:55:28.375Z,2.33
2022-11-12T21:58:16.326Z,1.57
2022-11-12T22:01:10.628Z,2.00
2022-11-12T22:03:59.445Z,1.70
2022-11-12T22:06:46.519Z,1.70
2022-11-12T22:09:33.265Z,1.60
2022-11-12T22:12:19.804Z,1.60
2022-11-12T22:15:08.647Z,2.13
2022-11-12T22:17:55.278Z,1.70
2022-11-12T22:20:41.816Z,2.00
2022-11-12T22:23:28.806Z,2.37
2022-11-12T22:26:17.303Z,1.80
2022-11-12T22:29:04.226Z,1.80
2022-11-12T22:31:52.090Z,1.83
2022-11-12T22:34:38.566Z,1.77
2022-11-12T22:37:24.923Z,1.87
2022-11-12T22:40:13.652Z,1.47
2022-11-12T22:43:00.609Z,1.90
2022-11-12T22:45:47.399Z,1.80
2022-11-12T22:48:35.443Z,1.70
2022-11-12T22:51:23.647Z,1.87
2022-11-12T22:54:13.271Z,1.97
2022-11-12T22:57:00.048Z,1.30
2022-11-12T22:59:46.648Z,2.00
2022-11-12T23:02:35.477Z,1.83
2022-11-12T23:05:23.267Z,1.60
2022-11-12T23:08:09.769Z,1.60
2022-11-12T23:10:56.659Z,1.67
2022-11-12T23:13:43.695Z,1.60
2022-11-12T23:16:31.471Z,1.93
2022-11-12T23:19:17.897Z,1.63
2022-11-12T23:22:08.104Z,1.50
2022-11-12T23:24:54.777Z,1.40
2022-11-12T23:27:41.244Z,1.90
2022-11-12T23:30:27.717Z,1.67
2022-11-12T23:33:14.579Z,1.70
2022-11-12T23:36:08.043Z,1.60
2022-11-12T23:38:56.936Z,1.73
2022-11-12T23:41:43.591Z,1.73
2022-11-12T23:44:30.331Z,1.87
2022-11-12T23:47:17.213Z,1.60
2022-11-12T23:50:03.617Z,2.07
2022-11-12T23:52:50.311Z,1.90
2022-11-12T23:55:38.773Z,1.60
2022-11-12T23:58:25.485Z,1.90
